sensor_id;sensor_type;location;lat;lon;timestamp;pressure;altitude;pressure_sealevel;temperature;humidity
31357;BME280;60001;48.404;11.738;2024-01-10T00:01:16;96995.81;;;-4.46;62.87
31357;BME280;60001;48.404;11.738;2024-01-10T00:02:46;96988.41;;;-4.22;62.27
31357;BME280;60001;48.404;11.738;2024-01-10T00:04:18;96996.88;;;-4.39;63.02
31357;BME280;60001;48.404;11.738;2024-01-10T00:05:49;96995.25;;;-4.40;62.72
31357;BME280;60001;48.404;11.738;2024-01-10T00:07:21;96999.09;;;-4.54;62.88
31357;BME280;60001;48.404;11.738;2024-01-10T00:08:52;96998.38;;;-4.46;62.89
31357;BME280;60001;48.404;11.738;2024-01-10T00:10:23;96998.94;;;-4.43;62.76
31357;BME280;60001;48.404;11.738;2024-01-10T00:11:54;96998.53;;;-4.38;63.30
31357;BME280;60001;48.404;11.738;2024-01-10T00:13:26;96997.41;;;-4.35;62.48
31357;BME280;60001;48.404;11.738;2024-01-10T00:14:58;96999.91;;;-4.53;63.37
31357;BME280;60001;48.404;11.738;2024-01-10T00:16:31;97002.78;;;-4.56;63.54
31357;BME280;60001;48.404;11.738;2024-01-10T00:18:02;97002.59;;;-4.45;63.28
31357;BME280;60001;48.404;11.738;2024-01-10T00:19:33;96997.16;;;-4.42;63.61
31357;BME280;60001;48.404;11.738;2024-01-10T00:21:04;96989.19;;;-4.49;62.82
31357;BME280;60001;48.404;11.738;2024-01-10T00:22:36;96987.00;;;-4.44;63.36
31357;BME280;60001;48.404;11.738;2024-01-10T00:24:07;96997.44;;;-4.45;64.03
31357;BME280;60001;48.404;11.738;2024-01-10T00:25:39;96991.75;;;-4.49;64.17
31357;BME280;60001;48.404;11.738;2024-01-10T00:27:10;96994.19;;;-4.47;63.51
31357;BME280;60001;48.404;11.738;2024-01-10T00:28:41;96987.97;;;-4.54;63.08
31357;BME280;60001;48.404;11.738;2024-01-10T00:30:12;96987.56;;;-4.59;64.81
31357;BME280;60001;48.404;11.738;2024-01-10T00:31:45;96987.56;;;-4.59;63.86
31357;BME280;60001;48.404;11.738;2024-01-10T00:33:16;96988.78;;;-4.54;64.23
31357;BME280;60001;48.404;11.738;2024-01-10T00:34:48;96987.03;;;-4.53;64.52
31357;BME280;60001;48.404;11.738;2024-01-10T00:36:19;96986.06;;;-4.52;64.51
31357;BME280;60001;48.404;11.738;2024-01-10T00:37:50;96988.28;;;-4.67;64.63
31357;BME280;60001;48.404;11.738;2024-01-10T00:39:22;96980.81;;;-4.60;64.78
31357;BME280;60001;48.404;11.738;2024-01-10T00:40:53;96986.34;;;-4.55;65.03
31357;BME280;60001;48.404;11.738;2024-01-10T00:42:26;96985.84;;;-4.69;65.44
31357;BME280;60001;48.404;11.738;2024-01-10T00:43:57;96982.31;;;-4.58;64.65
31357;BME280;60001;48.404;11.738;2024-01-10T00:45:28;96987.97;;;-4.54;65.40
31357;BME280;60001;48.404;11.738;2024-01-10T00:47:01;96988.16;;;-4.65;65.17
31357;BME280;60001;48.404;11.738;2024-01-10T00:48:33;96987.56;;;-4.50;64.74
31357;BME280;60001;48.404;11.738;2024-01-10T00:50:05;96983.75;;;-4.46;64.61
31357;BME280;60001;48.404;11.738;2024-01-10T00:51:37;96992.91;;;-4.71;65.11
31357;BME280;60001;48.404;11.738;2024-01-10T00:53:08;96990.47;;;-4.72;65.11
31357;BME280;60001;48.404;11.738;2024-01-10T00:54:39;96974.22;;;-4.73;65.46
31357;BME280;60001;48.404;11.738;2024-01-10T00:56:10;96986.00;;;-4.70;65.62
31357;BME280;60001;48.404;11.738;2024-01-10T00:57:42;96983.00;;;-4.75;66.04
31357;BME280;60001;48.404;11.738;2024-01-10T00:59:13;96974.88;;;-4.80;65.97
31357;BME280;60001;48.404;11.738;2024-01-10T01:00:45;96992.09;;;-4.71;65.94
31357;BME280;60001;48.404;11.738;2024-01-10T01:02:17;96997.50;;;-4.74;65.90
31357;BME280;60001;48.404;11.738;2024-01-10T01:03:49;96990.06;;;-4.77;66.03
31357;BME280;60001;48.404;11.738;2024-01-10T01:05:19;96989.16;;;-4.86;67.34
31357;BME280;60001;48.404;11.738;2024-01-10T01:06:52;96990.91;;;-4.86;66.89
31357;BME280;60001;48.404;11.738;2024-01-10T01:08:23;96992.66;;;-4.77;66.67
31357;BME280;60001;48.404;11.738;2024-01-10T01:09:54;96994.16;;;-4.94;66.90
31357;BME280;60001;48.404;11.738;2024-01-10T01:11:27;96989.56;;;-4.90;67.04
31357;BME280;60001;48.404;11.738;2024-01-10T01:13:00;96999.31;;;-4.94;68.20
31357;BME280;60001;48.404;11.738;2024-01-10T01:14:31;96995.53;;;-4.90;67.31
31357;BME280;60001;48.404;11.738;2024-01-10T01:16:04;96988.91;;;-4.92;68.03
31357;BME280;60001;48.404;11.738;2024-01-10T01:17:36;97007.06;;;-5.04;68.31
31357;BME280;60001;48.404;11.738;2024-01-10T01:19:08;96999.03;;;-4.81;68.31
31357;BME280;60001;48.404;11.738;2024-01-10T01:20:39;97008.13;;;-4.97;68.54
31357;BME280;60001;48.404;11.738;2024-01-10T01:22:10;97002.56;;;-5.02;68.48
31357;BME280;60001;48.404;11.738;2024-01-10T01:23:41;97010.16;;;-4.90;69.45
31357;BME280;60001;48.404;11.738;2024-01-10T01:25:13;97002.16;;;-4.87;68.42
31357;BME280;60001;48.404;11.738;2024-01-10T01:26:44;97005.13;;;-4.82;68.68
31357;BME280;60001;48.404;11.738;2024-01-10T01:28:19;96999.22;;;-5.21;69.64
31357;BME280;60001;48.404;11.738;2024-01-10T01:29:49;97011.38;;;-4.85;69.68
31357;BME280;60001;48.404;11.738;2024-01-10T01:31:21;97009.47;;;-4.83;69.04
31357;BME280;60001;48.404;11.738;2024-01-10T01:32:53;96970.75;;;-5.30;69.43
31357;BME280;60001;48.404;11.738;2024-01-10T01:34:25;97004.75;;;-5.16;70.25
31357;BME280;60001;48.404;11.738;2024-01-10T01:35:56;97013.03;;;-5.13;70.37
31357;BME280;60001;48.404;11.738;2024-01-10T01:37:28;97017.91;;;-5.00;70.00
31357;BME280;60001;48.404;11.738;2024-01-10T01:39:00;97026.84;;;-4.85;70.09
31357;BME280;60001;48.404;11.738;2024-01-10T01:40:32;97018.16;;;-5.03;70.21
31357;BME280;60001;48.404;11.738;2024-01-10T01:42:04;97022.50;;;-4.84;69.64
31357;BME280;60001;48.404;11.738;2024-01-10T01:43:36;97020.44;;;-4.81;69.15
31357;BME280;60001;48.404;11.738;2024-01-10T01:45:07;97022.91;;;-4.79;69.16
31357;BME280;60001;48.404;11.738;2024-01-10T01:46:39;97017.75;;;-4.79;68.91
31357;BME280;60001;48.404;11.738;2024-01-10T01:48:13;97018.44;;;-4.97;69.29
31357;BME280;60001;48.404;11.738;2024-01-10T01:49:45;97013.03;;;-5.13;69.96
31357;BME280;60001;48.404;11.738;2024-01-10T01:51:17;97016.94;;;-5.09;69.96
31357;BME280;60001;48.404;11.738;2024-01-10T01:52:52;97013.81;;;-5.03;69.77
31357;BME280;60001;48.404;11.738;2024-01-10T01:54:24;97025.78;;;-5.11;70.17
31357;BME280;60001;48.404;11.738;2024-01-10T01:55:56;97020.91;;;-5.14;68.89
31357;BME280;60001;48.404;11.738;2024-01-10T01:57:32;97021.28;;;-5.29;69.82
31357;BME280;60001;48.404;11.738;2024-01-10T01:59:05;97030.66;;;-5.18;70.39
31357;BME280;60001;48.404;11.738;2024-01-10T02:00:35;97020.63;;;-5.11;70.12
31357;BME280;60001;48.404;11.738;2024-01-10T02:02:09;97024.13;;;-5.03;69.15
31357;BME280;60001;48.404;11.738;2024-01-10T02:03:44;97023.06;;;-5.10;68.99
31357;BME280;60001;48.404;11.738;2024-01-10T02:05:15;97021.16;;;-5.17;69.55
31357;BME280;60001;48.404;11.738;2024-01-10T02:06:47;97014.78;;;-5.23;69.73
31357;BME280;60001;48.404;11.738;2024-01-10T02:08:17;97021.44;;;-5.20;68.85
31357;BME280;60001;48.404;11.738;2024-01-10T02:09:49;97022.78;;;-5.16;69.74
31357;BME280;60001;48.404;11.738;2024-01-10T02:11:20;97021.28;;;-5.29;69.70
31357;BME280;60001;48.404;11.738;2024-01-10T02:12:52;97011.69;;;-5.27;69.58
31357;BME280;60001;48.404;11.738;2024-01-10T02:14:23;97012.09;;;-5.21;69.58
31357;BME280;60001;48.404;11.738;2024-01-10T02:15:56;97021.31;;;-5.19;69.86
31357;BME280;60001;48.404;11.738;2024-01-10T02:17:27;97022.25;;;-5.20;69.01
31357;BME280;60001;48.404;11.738;2024-01-10T02:19:00;97022.78;;;-5.16;70.21
31357;BME280;60001;48.404;11.738;2024-01-10T02:20:32;97019.13;;;-5.14;69.48
31357;BME280;60001;48.404;11.738;2024-01-10T02:22:03;97024.13;;;-5.22;69.56
31357;BME280;60001;48.404;11.738;2024-01-10T02:23:35;97026.59;;;-5.20;69.97
31357;BME280;60001;48.404;11.738;2024-01-10T02:25:09;97025.22;;;-5.25;70.71
31357;BME280;60001;48.404;11.738;2024-01-10T02:26:39;96991.22;;;-5.28;70.10
31357;BME280;60001;48.404;11.738;2024-01-10T02:28:11;97023.31;;;-5.03;69.23
31357;BME280;60001;48.404;11.738;2024-01-10T02:29:42;97021.16;;;-4.98;70.09
31357;BME280;60001;48.404;11.738;2024-01-10T02:31:14;97023.47;;;-5.14;69.46
31357;BME280;60001;48.404;11.738;2024-01-10T02:32:44;97024.16;;;-5.12;69.78
31357;BME280;60001;48.404;11.738;2024-01-10T02:34:16;97022.66;;;-5.25;69.72
31357;BME280;60001;48.404;11.738;2024-01-10T02:35:47;97018.19;;;-5.32;70.71
31357;BME280;60001;48.404;11.738;2024-01-10T02:37:19;97020.88;;;-5.24;70.95
31357;BME280;60001;48.404;11.738;2024-01-10T02:38:50;97018.97;;;-5.22;70.40
31357;BME280;60001;48.404;11.738;2024-01-10T02:40:23;97018.31;;;-5.14;70.48
31357;BME280;60001;48.404;11.738;2024-01-10T02:41:54;97014.25;;;-5.17;70.46
31357;BME280;60001;48.404;11.738;2024-01-10T02:43:25;97024.97;;;-5.21;70.92
31357;BME280;60001;48.404;11.738;2024-01-10T02:44:57;97015.72;;;-5.24;70.74
31357;BME280;60001;48.404;11.738;2024-01-10T02:46:28;97005.03;;;-5.29;70.88
31357;BME280;60001;48.404;11.738;2024-01-10T02:48:03;97018.59;;;-5.17;70.50
31357;BME280;60001;48.404;11.738;2024-01-10T02:49:34;97012.22;;;-5.13;71.08
31357;BME280;60001;48.404;11.738;2024-01-10T02:51:05;97016.00;;;-5.08;70.09
31357;BME280;60001;48.404;11.738;2024-01-10T02:52:37;97017.09;;;-5.10;70.02
31357;BME280;60001;48.404;11.738;2024-01-10T02:54:08;97015.88;;;-5.16;70.31
31357;BME280;60001;48.404;11.738;2024-01-10T02:55:42;97004.38;;;-5.21;70.12
31357;BME280;60001;48.404;11.738;2024-01-10T02:57:13;97015.47;;;-5.21;70.84
31357;BME280;60001;48.404;11.738;2024-01-10T02:58:45;97013.72;;;-5.20;70.72
31357;BME280;60001;48.404;11.738;2024-01-10T03:00:16;97012.09;;;-5.21;70.18
31357;BME280;60001;48.404;11.738;2024-01-10T03:01:48;97012.63;;;-5.28;70.88
31357;BME280;60001;48.404;11.738;2024-01-10T03:03:19;97011.81;;;-5.28;70.51
31357;BME280;60001;48.404;11.738;2024-01-10T03:04:50;97008.56;;;-5.30;70.66
31357;BME280;60001;48.404;11.738;2024-01-10T03:06:21;97011.13;;;-5.30;71.30
31357;BME280;60001;48.404;11.738;2024-01-10T03:07:53;96993.53;;;-5.35;70.77
31357;BME280;60001;48.404;11.738;2024-01-10T03:09:24;97001.38;;;-5.27;70.68
31357;BME280;60001;48.404;11.738;2024-01-10T03:10:57;96998.25;;;-5.40;71.59
31357;BME280;60001;48.404;11.738;2024-01-10T03:12:28;96997.31;;;-5.39;72.28
31357;BME280;60001;48.404;11.738;2024-01-10T03:14:03;96996.63;;;-5.31;71.61
31357;BME280;60001;48.404;11.738;2024-01-10T03:15:34;96996.25;;;-5.27;72.10
31357;BME280;60001;48.404;11.738;2024-01-10T03:17:06;96999.91;;;-5.19;71.42
31357;BME280;60001;48.404;11.738;2024-01-10T03:18:37;96997.03;;;-5.16;71.66
31357;BME280;60001;48.404;11.738;2024-01-10T03:20:09;97001.38;;;-5.17;71.33
31357;BME280;60001;48.404;11.738;2024-01-10T03:21:40;97001.91;;;-5.23;70.89
31357;BME280;60001;48.404;11.738;2024-01-10T03:23:12;96994.06;;;-5.21;70.89
31357;BME280;60001;48.404;11.738;2024-01-10T03:24:43;96994.34;;;-5.25;71.43
31357;BME280;60001;48.404;11.738;2024-01-10T03:26:16;96984.31;;;-5.37;71.68
31357;BME280;60001;48.404;11.738;2024-01-10T03:27:47;96989.72;;;-5.31;71.40
31357;BME280;60001;48.404;11.738;2024-01-10T03:29:18;96990.13;;;-5.26;71.61
31357;BME280;60001;48.404;11.738;2024-01-10T03:30:49;96984.59;;;-5.21;70.94
31357;BME280;60001;48.404;11.738;2024-01-10T03:32:21;96989.84;;;-5.22;71.26
31357;BME280;60001;48.404;11.738;2024-01-10T03:33:53;96988.66;;;-5.28;71.56
31357;BME280;60001;48.404;11.738;2024-01-10T03:35:24;96982.53;;;-5.37;71.48
31357;BME280;60001;48.404;11.738;2024-01-10T03:36:55;96986.47;;;-5.42;71.92
31357;BME280;60001;48.404;11.738;2024-01-10T03:38:26;96988.94;;;-5.41;72.51
31357;BME280;60001;48.404;11.738;2024-01-10T03:39:58;96988.53;;;-5.27;72.05
31357;BME280;60001;48.404;11.738;2024-01-10T03:41:34;96994.34;;;-5.34;71.64
31357;BME280;60001;48.404;11.738;2024-01-10T03:43:06;96987.97;;;-5.40;71.88
31357;BME280;60001;48.404;11.738;2024-01-10T03:44:36;96989.03;;;-5.42;72.40
31357;BME280;60001;48.404;11.738;2024-01-10T03:46:08;96993.13;;;-5.40;72.02
31357;BME280;60001;48.404;11.738;2024-01-10T03:47:39;96995.56;;;-5.48;72.84
31357;BME280;60001;48.404;11.738;2024-01-10T03:49:11;96992.19;;;-5.48;72.12
31357;BME280;60001;48.404;11.738;2024-01-10T03:50:41;96987.41;;;-5.53;72.45
31357;BME280;60001;48.404;11.738;2024-01-10T03:52:13;96992.97;;;-5.48;73.03
31357;BME280;60001;48.404;11.738;2024-01-10T03:53:44;96992.19;;;-5.48;73.09
31357;BME280;60001;48.404;11.738;2024-01-10T03:55:16;96992.97;;;-5.48;73.76
31357;BME280;60001;48.404;11.738;2024-01-10T03:56:48;96977.78;;;-5.51;72.83
31357;BME280;60001;48.404;11.738;2024-01-10T03:58:20;96993.66;;;-5.46;73.49
31357;BME280;60001;48.404;11.738;2024-01-10T03:59:51;96992.84;;;-5.46;73.32
31357;BME280;60001;48.404;11.738;2024-01-10T04:01:23;96990.53;;;-5.40;73.44
31357;BME280;60001;48.404;11.738;2024-01-10T04:02:54;96992.59;;;-5.34;72.84
31357;BME280;60001;48.404;11.738;2024-01-10T04:04:25;96986.09;;;-5.28;72.93
31357;BME280;60001;48.404;11.738;2024-01-10T04:05:56;96984.19;;;-5.26;73.26
31357;BME280;60001;48.404;11.738;2024-01-10T04:07:28;96982.41;;;-5.26;73.18
31357;BME280;60001;48.404;11.738;2024-01-10T04:08:59;96982.28;;;-5.24;72.64
31357;BME280;60001;48.404;11.738;2024-01-10T04:10:30;96979.69;;;-5.24;73.07
31357;BME280;60001;48.404;11.738;2024-01-10T04:12:03;96980.25;;;-5.20;72.67
31357;BME280;60001;48.404;11.738;2024-01-10T04:13:35;96976.44;;;-5.16;73.05
31357;BME280;60001;48.404;11.738;2024-01-10T04:15:06;96982.53;;;-5.17;72.76
31357;BME280;60001;48.404;11.738;2024-01-10T04:16:38;96971.97;;;-5.24;73.23
31357;BME280;60001;48.404;11.738;2024-01-10T04:18:09;96974.94;;;-5.29;73.53
31357;BME280;60001;48.404;11.738;2024-01-10T04:19:41;96980.91;;;-5.18;73.39
31357;BME280;60001;48.404;11.738;2024-01-10T04:21:11;96976.47;;;-5.26;72.91
31357;BME280;60001;48.404;11.738;2024-01-10T04:22:43;96981.84;;;-5.29;73.28
31357;BME280;60001;48.404;11.738;2024-01-10T04:24:15;96959.00;;;-5.42;74.00
31357;BME280;60001;48.404;11.738;2024-01-10T04:25:46;96985.25;;;-5.19;73.64
31357;BME280;60001;48.404;11.738;2024-01-10T04:27:19;96986.75;;;-5.16;73.02
31357;BME280;60001;48.404;11.738;2024-01-10T04:28:50;96987.97;;;-5.11;73.63
31357;BME280;60001;48.404;11.738;2024-01-10T04:30:21;96978.88;;;-5.15;72.83
31357;BME280;60001;48.404;11.738;2024-01-10T04:31:52;96986.47;;;-5.13;73.21
31357;BME280;60001;48.404;11.738;2024-01-10T04:33:24;96989.59;;;-5.19;73.20
31357;BME280;60001;48.404;11.738;2024-01-10T04:34:56;96990.00;;;-5.14;73.81
31357;BME280;60001;48.404;11.738;2024-01-10T04:36:27;96987.53;;;-5.16;73.60
31357;BME280;60001;48.404;11.738;2024-01-10T04:37:58;96985.25;;;-5.09;73.76
31357;BME280;60001;48.404;11.738;2024-01-10T04:39:32;96987.00;;;-5.10;73.24
31357;BME280;60001;48.404;11.738;2024-01-10T04:41:04;96990.66;;;-5.03;73.60
31357;BME280;60001;48.404;11.738;2024-01-10T04:42:37;96978.03;;;-4.96;73.58
31357;BME280;60001;48.404;11.738;2024-01-10T04:44:08;96985.25;;;-5.00;73.70
31357;BME280;60001;48.404;11.738;2024-01-10T04:45:39;96987.41;;;-5.05;73.35
31357;BME280;60001;48.404;11.738;2024-01-10T04:47:10;96984.28;;;-5.08;73.61
31357;BME280;60001;48.404;11.738;2024-01-10T04:48:42;96955.72;;;-5.25;73.91
31357;BME280;60001;48.404;11.738;2024-01-10T04:50:13;96987.56;;;-5.06;74.06
31357;BME280;60001;48.404;11.738;2024-01-10T04:51:45;96991.91;;;-5.07;73.86
31357;BME280;60001;48.404;11.738;2024-01-10T04:53:16;96991.09;;;-5.07;73.50
31357;BME280;60001;48.404;11.738;2024-01-10T04:54:49;96977.53;;;-5.19;74.16
31357;BME280;60001;48.404;11.738;2024-01-10T04:56:20;96979.28;;;-5.19;74.49
31357;BME280;60001;48.404;11.738;2024-01-10T04:57:53;96974.03;;;-5.28;75.41
31357;BME280;60001;48.404;11.738;2024-01-10T04:59:24;96989.75;;;-5.21;74.51
31357;BME280;60001;48.404;11.738;2024-01-10T05:00:56;96990.25;;;-5.37;74.97
31357;BME280;60001;48.404;11.738;2024-01-10T05:02:27;96994.06;;;-5.21;75.00
31357;BME280;60001;48.404;11.738;2024-01-10T05:03:58;96992.97;;;-5.09;75.00
31357;BME280;60001;48.404;11.738;2024-01-10T05:05:30;96996.91;;;-5.05;75.25
31357;BME280;60001;48.404;11.738;2024-01-10T05:07:02;96995.53;;;-5.00;74.19
31357;BME280;60001;48.404;11.738;2024-01-10T05:08:33;96999.19;;;-4.92;74.14
31357;BME280;60001;48.404;11.738;2024-01-10T05:10:05;96985.88;;;-4.88;73.86
31357;BME280;60001;48.404;11.738;2024-01-10T05:11:37;96987.50;;;-4.87;74.23
31357;BME280;60001;48.404;11.738;2024-01-10T05:13:09;96994.03;;;-4.92;74.30
31357;BME280;60001;48.404;11.738;2024-01-10T05:14:41;96991.59;;;-4.94;73.81
31357;BME280;60001;48.404;11.738;2024-01-10T05:16:12;96998.94;;;-5.09;74.40
31357;BME280;60001;48.404;11.738;2024-01-10T05:17:44;96996.34;;;-5.09;74.67
31357;BME280;60001;48.404;11.738;2024-01-10T05:19:14;96993.78;;;-4.99;75.42
31357;BME280;60001;48.404;11.738;2024-01-10T05:20:46;96995.00;;;-5.13;75.28
31357;BME280;60001;48.404;11.738;2024-01-10T05:22:17;96994.19;;;-5.04;75.48
31357;BME280;60001;48.404;11.738;2024-01-10T05:23:49;96995.13;;;-4.95;75.23
31357;BME280;60001;48.404;11.738;2024-01-10T05:25:19;96994.31;;;-4.86;75.29
31357;BME280;60001;48.404;11.738;2024-01-10T05:26:51;96998.91;;;-4.80;75.08
31357;BME280;60001;48.404;11.738;2024-01-10T05:28:23;96998.88;;;-4.70;74.59
31357;BME280;60001;48.404;11.738;2024-01-10T05:29:55;96999.97;;;-4.73;74.67
31357;BME280;60001;48.404;11.738;2024-01-10T05:31:26;97006.75;;;-4.72;74.78
31357;BME280;60001;48.404;11.738;2024-01-10T05:32:58;97000.34;;;-4.68;74.01
31357;BME280;60001;48.404;11.738;2024-01-10T05:34:29;96997.81;;;-4.87;74.40
31357;BME280;60001;48.404;11.738;2024-01-10T05:36:04;97010.19;;;-5.00;74.98
31357;BME280;60001;48.404;11.738;2024-01-10T05:37:35;97004.31;;;-4.83;75.92
31357;BME280;60001;48.404;11.738;2024-01-10T05:39:06;97012.31;;;-4.76;74.98
31357;BME280;60001;48.404;11.738;2024-01-10T05:40:38;97012.72;;;-4.71;74.92
31357;BME280;60001;48.404;11.738;2024-01-10T05:42:09;97021.91;;;-4.59;74.70
31357;BME280;60001;48.404;11.738;2024-01-10T05:43:42;97014.59;;;-4.63;74.48
31357;BME280;60001;48.404;11.738;2024-01-10T05:45:14;97025.41;;;-4.50;73.94
31357;BME280;60001;48.404;11.738;2024-01-10T05:46:48;97022.81;;;-4.41;73.60
31357;BME280;60001;48.404;11.738;2024-01-10T05:48:20;97021.56;;;-4.36;73.69
31357;BME280;60001;48.404;11.738;2024-01-10T05:49:50;97025.56;;;-4.52;74.29
31357;BME280;60001;48.404;11.738;2024-01-10T05:51:23;97022.41;;;-4.46;74.55
31357;BME280;60001;48.404;11.738;2024-01-10T05:52:54;97022.53;;;-4.47;73.62
31357;BME280;60001;48.404;11.738;2024-01-10T05:54:25;97009.66;;;-4.47;73.68
31357;BME280;60001;48.404;11.738;2024-01-10T05:55:57;97017.50;;;-4.39;74.34
31357;BME280;60001;48.404;11.738;2024-01-10T05:57:31;97015.63;;;-4.37;73.17
31357;BME280;60001;48.404;11.738;2024-01-10T05:59:04;97010.31;;;-4.45;73.81
31357;BME280;60001;48.404;11.738;2024-01-10T06:00:36;97012.78;;;-4.53;73.63
31357;BME280;60001;48.404;11.738;2024-01-10T06:02:06;97015.91;;;-4.59;73.89
31357;BME280;60001;48.404;11.738;2024-01-10T06:03:38;97016.41;;;-4.36;74.03
31357;BME280;60001;48.404;11.738;2024-01-10T06:05:10;97014.56;;;-4.44;74.07
31357;BME280;60001;48.404;11.738;2024-01-10T06:06:42;97010.91;;;-4.51;74.33
31357;BME280;60001;48.404;11.738;2024-01-10T06:08:13;97009.16;;;-4.60;74.88
31357;BME280;60001;48.404;11.738;2024-01-10T06:09:45;97017.78;;;-4.42;74.51
31357;BME280;60001;48.404;11.738;2024-01-10T06:11:16;97013.75;;;-4.45;74.99
31357;BME280;60001;48.404;11.738;2024-01-10T06:12:48;97008.59;;;-4.45;74.78
31357;BME280;60001;48.404;11.738;2024-01-10T06:14:20;97002.72;;;-4.37;74.46
31357;BME280;60001;48.404;11.738;2024-01-10T06:15:52;97008.25;;;-4.32;74.06
31357;BME280;60001;48.404;11.738;2024-01-10T06:17:23;97006.22;;;-4.28;73.40
31357;BME280;60001;48.404;11.738;2024-01-10T06:18:55;97004.41;;;-4.55;74.82
31357;BME280;60001;48.404;11.738;2024-01-10T06:20:27;97020.44;;;-4.81;76.30
31357;BME280;60001;48.404;11.738;2024-01-10T06:21:58;97016.88;;;-4.60;75.03
31357;BME280;60001;48.404;11.738;2024-01-10T06:23:30;97016.25;;;-4.82;75.92
31357;BME280;60001;48.404;11.738;2024-01-10T06:25:01;97004.19;;;-4.72;75.98
31357;BME280;60001;48.404;11.738;2024-01-10T06:26:34;97003.78;;;-4.77;76.45
31357;BME280;60001;48.404;11.738;2024-01-10T06:28:05;97019.63;;;-4.72;76.07
31357;BME280;60001;48.404;11.738;2024-01-10T06:29:38;97021.38;;;-4.62;75.56
31357;BME280;60001;48.404;11.738;2024-01-10T06:31:12;97024.91;;;-4.73;76.37
31357;BME280;60001;48.404;11.738;2024-01-10T06:32:43;97023.28;;;-4.64;75.91
31357;BME280;60001;48.404;11.738;2024-01-10T06:34:15;96990.03;;;-4.68;76.39
31357;BME280;60001;48.404;11.738;2024-01-10T06:35:47;97019.44;;;-4.51;75.69
31357;BME280;60001;48.404;11.738;2024-01-10T06:37:18;97019.06;;;-4.56;74.92
31357;BME280;60001;48.404;11.738;2024-01-10T06:38:50;97022.16;;;-4.52;74.68
31357;BME280;60001;48.404;11.738;2024-01-10T06:40:21;97025.28;;;-4.49;74.92
31357;BME280;60001;48.404;11.738;2024-01-10T06:41:52;97025.53;;;-4.42;75.46
31357;BME280;60001;48.404;11.738;2024-01-10T06:43:24;97024.06;;;-4.45;74.57
31357;BME280;60001;48.404;11.738;2024-01-10T06:44:56;97028.69;;;-4.58;75.28
31357;BME280;60001;48.404;11.738;2024-01-10T06:46:28;97020.28;;;-4.60;75.78
31357;BME280;60001;48.404;11.738;2024-01-10T06:48:01;97021.66;;;-4.65;76.48
31357;BME280;60001;48.404;11.738;2024-01-10T06:49:32;97033.31;;;-4.71;76.38
31357;BME280;60001;48.404;11.738;2024-01-10T06:51:03;97035.34;;;-4.75;76.58
31357;BME280;60001;48.404;11.738;2024-01-10T06:52:35;97029.91;;;-4.62;77.13
31357;BME280;60001;48.404;11.738;2024-01-10T06:54:06;97031.38;;;-4.50;75.45
31357;BME280;60001;48.404;11.738;2024-01-10T06:55:39;97037.88;;;-4.46;76.08
31357;BME280;60001;48.404;11.738;2024-01-10T06:57:10;97031.78;;;-4.45;75.48
31357;BME280;60001;48.404;11.738;2024-01-10T06:58:42;97037.06;;;-4.46;76.35
31357;BME280;60001;48.404;11.738;2024-01-10T07:00:15;97029.06;;;-4.43;75.48
31357;BME280;60001;48.404;11.738;2024-01-10T07:01:51;97038.81;;;-4.37;75.65
31357;BME280;60001;48.404;11.738;2024-01-10T07:03:22;97036.25;;;-4.47;75.65
31357;BME280;60001;48.404;11.738;2024-01-10T07:04:54;97038.16;;;-4.49;76.10
31357;BME280;60001;48.404;11.738;2024-01-10T07:06:25;97044.53;;;-4.43;75.90
31357;BME280;60001;48.404;11.738;2024-01-10T07:07:56;97047.66;;;-4.49;76.13
31357;BME280;60001;48.404;11.738;2024-01-10T07:09:27;97048.72;;;-4.42;75.67
31357;BME280;60001;48.404;11.738;2024-01-10T07:10:59;97054.72;;;-4.61;76.29
31357;BME280;60001;48.404;11.738;2024-01-10T07:12:30;97053.09;;;-4.62;75.90
31357;BME280;60001;48.404;11.738;2024-01-10T07:14:02;97048.75;;;-4.61;77.10
31357;BME280;60001;48.404;11.738;2024-01-10T07:15:35;97044.97;;;-4.67;76.68
31357;BME280;60001;48.404;11.738;2024-01-10T07:17:07;97052.44;;;-4.64;76.89
31357;BME280;60001;48.404;11.738;2024-01-10T07:18:38;97051.75;;;-4.56;76.42
31357;BME280;60001;48.404;11.738;2024-01-10T07:20:11;97047.09;;;-4.43;75.64
31357;BME280;60001;48.404;11.738;2024-01-10T07:21:43;97056.03;;;-4.37;76.54
31357;BME280;60001;48.404;11.738;2024-01-10T07:23:14;97050.31;;;-4.31;76.17
31357;BME280;60001;48.404;11.738;2024-01-10T07:24:46;97049.94;;;-4.46;76.18
31357;BME280;60001;48.404;11.738;2024-01-10T07:26:17;97057.13;;;-4.40;75.81
31357;BME280;60001;48.404;11.738;2024-01-10T07:27:48;97064.72;;;-4.38;75.57
31357;BME280;60001;48.404;11.738;2024-01-10T07:29:20;97067.47;;;-4.59;76.38
31357;BME280;60001;48.404;11.738;2024-01-10T07:30:53;97056.06;;;-4.47;76.78
31357;BME280;60001;48.404;11.738;2024-01-10T07:32:24;97068.94;;;-4.47;75.88
31357;BME280;60001;48.404;11.738;2024-01-10T07:33:56;97073.28;;;-4.48;76.81
31357;BME280;60001;48.404;11.738;2024-01-10T07:35:27;97076.69;;;-4.47;75.88
31357;BME280;60001;48.404;11.738;2024-01-10T07:36:59;97076.66;;;-4.37;75.66
31357;BME280;60001;48.404;11.738;2024-01-10T07:38:31;97082.09;;;-4.41;76.68
31357;BME280;60001;48.404;11.738;2024-01-10T07:40:03;97072.03;;;-4.34;76.50
31357;BME280;60001;48.404;11.738;2024-01-10T07:41:36;97078.44;;;-4.48;76.78
31357;BME280;60001;48.404;11.738;2024-01-10T07:43:07;97082.53;;;-4.64;76.57
31357;BME280;60001;48.404;11.738;2024-01-10T07:44:38;97089.44;;;-4.75;76.77
31357;BME280;60001;48.404;11.738;2024-01-10T07:46:12;97086.09;;;-4.65;76.52
31357;BME280;60001;48.404;11.738;2024-01-10T07:47:43;97075.63;;;-4.64;76.69
31357;BME280;60001;48.404;11.738;2024-01-10T07:49:16;97082.66;;;-4.66;76.86
31357;BME280;60001;48.404;11.738;2024-01-10T07:50:47;97101.13;;;-4.51;76.58
31357;BME280;60001;48.404;11.738;2024-01-10T07:52:19;97100.59;;;-4.64;77.78
31357;BME280;60001;48.404;11.738;2024-01-10T07:53:50;97092.03;;;-4.55;76.49
31357;BME280;60001;48.404;11.738;2024-01-10T07:55:22;97097.03;;;-4.44;77.28
31357;BME280;60001;48.404;11.738;2024-01-10T07:56:53;97090.25;;;-4.55;77.07
31357;BME280;60001;48.404;11.738;2024-01-10T07:58:25;97094.84;;;-4.39;76.41
31357;BME280;60001;48.404;11.738;2024-01-10T07:59:55;97092.00;;;-4.36;75.64